Time;durP1;ratioP1;P1;durP2;ratioP2;P2;SDS_P1;SDS_P2;PMS_P1;PMS_P2;Temp;Humidity;BMP_temperature;BMP_pressure;BME280_temperature;BME280_humidity;BME280_pressure;Samples;Min_cycle;Max_cycle;Signal;HPM_P1;HPM_P2
2024/04/22 00:01:34;;;;;;;3.53;3.23;;;;;;;4.16;100.00;98515.50;5451126;26;20235;-78
2024/04/22 00:03:59;;;;;;;4.33;3.40;;;;;;;4.01;100.00;98521.31;5451848;26;20224;-79
2024/04/22 00:06:27;;;;;;;4.73;3.47;;;;;;;4.08;100.00;98525.41;5452766;26;20239;-79
2024/04/22 00:08:53;;;;;;;6.27;3.50;;;;;;;4.05;100.00;98517.69;5452900;26;20323;-79
2024/04/22 00:11:21;;;;;;;3.97;3.23;;;;;;;4.04;100.00;98517.75;5452300;26;20744;-79
2024/04/22 00:13:47;;;;;;;4.47;3.27;;;;;;;4.09;100.00;98514.03;5452606;26;20805;-79
2024/04/22 00:16:18;;;;;;;3.30;2.87;;;;;;;4.07;100.00;98518.47;5451993;26;20238;-79
2024/04/22 00:18:45;;;;;;;3.73;3.10;;;;;;;4.09;100.00;98508.81;5452278;26;20214;-79
2024/04/22 00:21:13;;;;;;;3.60;2.90;;;;;;;4.13;100.00;98520.00;5452533;26;20405;-79
2024/04/22 00:23:38;;;;;;;3.00;2.67;;;;;;;4.18;100.00;98494.53;5452290;26;20579;-78
2024/04/22 00:26:07;;;;;;;2.97;2.63;;;;;;;4.09;100.00;98493.09;5452908;25;20334;-79
2024/04/22 00:28:32;;;;;;;3.27;2.83;;;;;;;4.17;100.00;98496.28;5451526;26;20311;-79
2024/04/22 00:31:00;;;;;;;3.43;2.90;;;;;;;4.17;100.00;98496.28;5453124;26;20243;-79
2024/04/22 00:33:28;;;;;;;5.30;3.10;;;;;;;4.16;100.00;98493.75;5453478;26;20315;-79
2024/04/22 00:35:57;;;;;;;4.50;2.67;;;;;;;4.17;100.00;98495.44;5454388;26;20262;-79
2024/04/22 00:38:24;;;;;;;4.03;3.07;;;;;;;4.16;100.00;98494.56;5454322;26;20274;-78
2024/04/22 00:40:52;;;;;;;3.30;2.87;;;;;;;4.13;100.00;98488.63;5452177;26;20284;-78
2024/04/22 00:43:18;;;;;;;5.53;3.10;;;;;;;4.04;100.00;98500.28;5447861;26;20270;-78
2024/04/22 00:45:47;;;;;;;3.70;3.17;;;;;;;3.98;100.00;98500.50;5446685;26;20305;-78
2024/04/22 00:48:15;;;;;;;4.07;2.80;;;;;;;3.99;100.00;98511.81;5447580;26;20263;-78
2024/04/22 00:50:50;;;;;;;3.37;2.60;;;;;;;4.13;100.00;98499.94;5447587;26;20247;-78
2024/04/22 00:53:17;;;;;;;3.77;2.60;;;;;;;4.07;100.00;98497.56;5447699;26;20354;-78
2024/04/22 00:55:47;;;;;;;3.07;2.73;;;;;;;4.12;100.00;98507.84;5447061;26;20224;-78
2024/04/22 00:58:13;;;;;;;4.03;2.50;;;;;;;3.99;100.00;98503.97;5445722;26;20232;-78
2024/04/22 01:00:42;;;;;;;3.20;2.67;;;;;;;4.00;100.00;98503.94;5446240;26;20253;-78
2024/04/22 01:03:08;;;;;;;3.17;2.70;;;;;;;4.07;100.00;98502.78;5446682;26;20303;-78
2024/04/22 01:05:36;;;;;;;3.20;2.90;;;;;;;4.00;100.00;98498.69;5447241;26;20243;-78
2024/04/22 01:08:05;;;;;;;4.83;3.20;;;;;;;3.95;100.00;98505.84;5447104;26;20271;-78
2024/04/22 01:10:34;;;;;;;3.77;2.63;;;;;;;3.96;100.00;98504.94;5446117;26;20236;-78
2024/04/22 01:13:01;;;;;;;3.93;3.33;;;;;;;3.91;100.00;98500.81;5446520;26;20282;-79
2024/04/22 01:15:31;;;;;;;4.07;3.07;;;;;;;3.87;100.00;98513.16;5446892;26;20231;-78
2024/04/22 01:17:56;;;;;;;4.40;3.20;;;;;;;3.94;100.00;98516.38;5446513;26;20266;-78
2024/04/22 01:20:25;;;;;;;5.30;2.90;;;;;;;3.95;100.00;98511.09;5446056;26;20236;-78
2024/04/22 01:22:53;;;;;;;3.30;2.77;;;;;;;3.96;100.00;98506.69;5446825;26;20242;-79
2024/04/22 01:25:24;;;;;;;5.43;3.13;;;;;;;3.91;100.00;98506.88;5446045;26;20229;-79
2024/04/22 01:27:52;;;;;;;4.77;3.27;;;;;;;3.95;100.00;98508.47;5446487;26;20317;-79
2024/04/22 01:30:20;;;;;;;4.97;3.93;;;;;;;4.09;100.00;98507.97;5446161;26;20282;-79
2024/04/22 01:32:45;;;;;;;5.27;3.73;;;;;;;4.12;100.00;98511.31;5447065;26;20617;-79
2024/04/22 01:35:13;;;;;;;4.10;3.13;;;;;;;4.07;100.00;98507.16;5446452;26;20298;-78
2024/04/22 01:37:39;;;;;;;4.47;3.40;;;;;;;3.98;100.00;98513.56;5449737;26;20231;-79
2024/04/22 01:40:12;;;;;;;4.90;3.37;;;;;;;3.91;100.00;98514.72;5454416;26;20307;-79
2024/04/22 01:42:37;;;;;;;7.37;3.60;;;;;;;3.86;100.00;98516.63;5457167;26;20274;-79
2024/04/22 01:45:06;;;;;;;5.77;3.47;;;;;;;3.89;100.00;98518.28;5456925;26;20306;-79
2024/04/22 01:47:32;;;;;;;5.57;3.30;;;;;;;3.87;100.00;98521.00;5455222;26;20308;-79
2024/04/22 01:50:00;;;;;;;4.50;3.43;;;;;;;3.84;100.00;98512.41;5454449;26;20239;-79
2024/04/22 01:52:25;;;;;;;4.63;3.63;;;;;;;3.83;100.00;98516.78;5455087;26;20792;-78
2024/04/22 01:54:54;;;;;;;8.97;3.97;;;;;;;3.93;100.00;98518.16;5454375;26;20324;-79
2024/04/22 01:57:23;;;;;;;5.90;3.40;;;;;;;3.84;100.00;98513.25;5454444;26;20401;-79
2024/04/22 01:59:51;;;;;;;4.07;3.17;;;;;;;3.82;100.00;98514.19;5453414;26;20400;-79
2024/04/22 02:02:16;;;;;;;4.67;3.67;;;;;;;3.76;100.00;98525.75;5451517;26;20649;-79
2024/04/22 02:04:45;;;;;;;4.07;2.87;;;;;;;3.70;100.00;98523.34;5451747;26;20300;-79
2024/04/22 02:07:10;;;;;;;4.53;3.40;;;;;;;3.71;100.00;98522.44;5451516;26;20359;-78
2024/04/22 02:09:38;;;;;;;5.67;3.80;;;;;;;3.68;100.00;98519.91;5451111;26;20237;-79
2024/04/22 02:12:04;;;;;;;4.23;3.57;;;;;;;3.83;100.00;98513.28;5450349;26;20265;-79
2024/04/22 02:14:36;;;;;;;4.50;3.37;;;;;;;3.76;100.00;98512.69;5450222;26;20267;-78
2024/04/22 02:17:01;;;;;;;3.67;3.37;;;;;;;3.75;100.00;98518.81;5449975;26;20346;-79
2024/04/22 02:19:30;;;;;;;5.47;3.20;;;;;;;3.74;100.00;98511.84;5451098;26;20698;-79
2024/04/22 02:21:55;;;;;;;5.40;3.63;;;;;;;3.67;100.00;98510.38;5450674;26;20321;-79
2024/04/22 02:24:23;;;;;;;3.70;3.10;;;;;;;3.78;100.00;98508.22;5451464;26;20236;-79
2024/04/22 02:26:49;;;;;;;3.73;3.17;;;;;;;3.76;100.00;98504.84;5451949;26;20639;-78
2024/04/22 02:29:17;;;;;;;7.50;3.53;;;;;;;3.79;100.00;98504.72;5451011;26;20226;-79
2024/04/22 02:31:45;;;;;;;4.97;3.60;;;;;;;3.78;100.00;98495.16;5449638;26;20238;-79
2024/04/22 02:34:13;;;;;;;3.57;3.00;;;;;;;3.79;100.00;98491.63;5450428;26;20236;-79
2024/04/22 02:36:39;;;;;;;4.73;3.20;;;;;;;3.72;100.00;98492.78;5450275;26;20292;-79
2024/04/22 02:39:07;;;;;;;4.57;3.50;;;;;;;3.70;100.00;98494.59;5449976;26;20230;-79
2024/04/22 02:41:32;;;;;;;4.60;3.30;;;;;;;3.68;100.00;98500.78;5450335;26;20664;-79
2024/04/22 02:44:01;;;;;;;3.90;3.00;;;;;;;3.64;100.00;98502.66;5450535;26;20233;-78
2024/04/22 02:46:26;;;;;;;4.07;3.23;;;;;;;3.69;100.00;98492.91;5449478;26;20225;-78
2024/04/22 02:48:57;;;;;;;4.00;2.90;;;;;;;3.68;100.00;98496.41;5450003;26;20323;-78
2024/04/22 02:51:22;;;;;;;3.97;3.30;;;;;;;3.77;100.00;98497.81;5448884;26;20345;-79
2024/04/22 02:53:51;;;;;;;4.53;3.30;;;;;;;3.65;100.00;98499.13;5449865;26;20233;-78
2024/04/22 02:56:16;;;;;;;5.90;2.87;;;;;;;3.70;100.00;98494.59;5450252;26;20235;-78
2024/04/22 02:58:50;;;;;;;5.07;3.10;;;;;;;3.63;100.00;98507.94;5449942;26;20299;-78
2024/04/22 03:01:15;;;;;;;3.30;3.00;;;;;;;3.54;100.00;98496.03;5449137;26;20291;-79
2024/04/22 03:03:43;;;;;;;4.40;2.93;;;;;;;3.55;100.00;98505.59;5449608;26;20329;-79
2024/04/22 03:06:12;;;;;;;3.33;2.57;;;;;;;3.52;100.00;98500.47;5450195;26;20270;-78
2024/04/22 03:08:41;;;;;;;3.63;2.90;;;;;;;3.57;100.00;98493.34;5449879;26;20227;-79
2024/04/22 03:11:07;;;;;;;3.23;2.73;;;;;;;3.57;100.00;98477.66;5449037;26;20338;-79
2024/04/22 03:13:38;;;;;;;3.63;2.77;;;;;;;3.61;100.00;98478.41;5450060;26;20239;-79
2024/04/22 03:16:04;;;;;;;3.87;2.83;;;;;;;3.56;100.00;98490.78;5449230;26;20277;-78
2024/04/22 03:18:32;;;;;;;5.57;3.00;;;;;;;3.59;100.00;98483.66;5450135;26;20299;-79
2024/04/22 03:20:57;;;;;;;5.07;2.90;;;;;;;3.57;100.00;98488.13;5448937;26;20279;-78
2024/04/22 03:23:28;;;;;;;3.00;2.70;;;;;;;3.56;100.00;98493.38;5449644;26;20319;-79
2024/04/22 03:25:54;;;;;;;3.87;2.93;;;;;;;3.46;100.00;98485.03;5449090;26;20279;-78
2024/04/22 03:28:22;;;;;;;4.13;2.80;;;;;;;3.35;100.00;98492.38;5447660;26;20672;-78
2024/04/22 03:30:47;;;;;;;3.33;2.93;;;;;;;3.33;100.00;98499.44;5447790;26;20368;-78
2024/04/22 03:33:16;;;;;;;3.43;2.67;;;;;;;3.27;100.00;98498.78;5447699;26;20691;-78
2024/04/22 03:35:41;;;;;;;5.73;3.20;;;;;;;3.18;100.00;98499.94;5449006;26;20718;-78
2024/04/22 03:38:09;;;;;;;5.60;3.20;;;;;;;3.18;100.00;98494.72;5449398;26;20322;-78
2024/04/22 03:40:40;;;;;;;3.87;3.27;;;;;;;3.22;100.00;98493.72;5448646;26;20238;-78
2024/04/22 03:43:08;;;;;;;3.87;3.27;;;;;;;3.06;100.00;98489.91;5448430;26;20762;-78
2024/04/22 03:45:34;;;;;;;4.40;3.03;;;;;;;2.90;100.00;98496.56;5448112;26;20329;-78
2024/04/22 03:50:45;;;;;;;4.33;3.27;;;;;;;2.71;100.00;98498.06;5415807;26;20343;-78
2024/04/22 03:53:13;;;;;;;4.80;3.23;;;;;;;2.66;100.00;98493.88;5449107;26;20707;-78
2024/04/22 03:55:44;;;;;;;4.27;3.43;;;;;;;2.65;100.00;98507.84;5451297;26;20236;-78
2024/04/22 03:58:13;;;;;;;3.63;3.33;;;;;;;2.51;100.00;98497.84;5451241;26;20592;-79
2024/04/22 04:00:38;;;;;;;4.67;3.43;;;;;;;2.40;100.00;98501.69;5450140;26;20349;-78
2024/04/22 04:03:07;;;;;;;3.80;3.10;;;;;;;2.43;100.00;98499.84;5449808;26;20228;-79
2024/04/22 04:05:32;;;;;;;4.60;3.50;;;;;;;2.30;100.00;98500.25;5449054;26;20641;-78
2024/04/22 04:08:00;;;;;;;6.10;4.27;;;;;;;2.17;100.00;98499.78;5450512;26;20238;-79
2024/04/22 04:10:26;;;;;;;6.37;3.50;;;;;;;2.13;100.00;98503.38;5452783;26;20336;-79
2024/04/22 04:12:56;;;;;;;4.60;3.43;;;;;;;2.13;100.00;98511.19;5452539;26;20221;-79
2024/04/22 04:15:22;;;;;;;5.53;2.87;;;;;;;2.10;100.00;98511.31;5452709;26;20277;-79
2024/04/22 04:17:53;;;;;;;4.40;3.23;;;;;;;2.12;100.00;98506.03;5453157;26;20563;-79
2024/04/22 04:20:19;;;;;;;4.03;3.40;;;;;;;1.96;100.00;98505.63;5452599;26;20676;-79
2024/04/22 04:22:47;;;;;;;3.40;2.90;;;;;;;1.87;100.00;98507.66;5453033;26;20306;-79
2024/04/22 04:25:13;;;;;;;3.87;3.23;;;;;;;1.85;100.00;98506.84;5452270;26;20236;-79
2024/04/22 04:27:41;;;;;;;3.67;3.13;;;;;;;1.76;100.00;98502.75;5452149;26;20225;-80
2024/04/22 04:30:10;;;;;;;3.10;2.80;;;;;;;1.67;100.00;98513.41;5451389;26;20281;-79
2024/04/22 04:32:38;;;;;;;4.33;3.53;;;;;;;1.70;100.00;98515.09;5453415;26;20579;-79
2024/04/22 04:35:03;;;;;;;5.30;3.43;;;;;;;1.74;100.00;98514.13;5453202;26;20233;-79
2024/04/22 04:37:32;;;;;;;5.27;3.77;;;;;;;1.79;100.00;98513.06;5454167;26;20303;-79
2024/04/22 04:39:57;;;;;;;4.40;3.23;;;;;;;1.81;100.00;98513.91;5452328;26;20308;-79
2024/04/22 04:42:25;;;;;;;5.70;3.60;;;;;;;1.86;100.00;98518.97;5453142;26;20318;-79
2024/04/22 04:44:51;;;;;;;7.17;3.37;;;;;;;1.94;100.00;98517.88;5452643;26;20272;-79
2024/04/22 04:47:22;;;;;;;4.90;3.37;;;;;;;1.94;100.00;98515.25;5451317;26;20804;-79
2024/04/22 04:49:47;;;;;;;4.50;3.40;;;;;;;2.02;100.00;98520.25;5452294;26;20265;-79
2024/04/22 04:52:16;;;;;;;2.93;2.63;;;;;;;2.05;100.00;98515.81;5451162;26;20263;-79
2024/04/22 04:54:41;;;;;;;4.13;3.07;;;;;;;2.00;100.00;98509.88;5449388;26;20276;-78
2024/04/22 04:57:09;;;;;;;4.53;3.10;;;;;;;2.06;100.00;98512.28;5446741;26;20331;-79
2024/04/22 04:59:35;;;;;;;4.20;2.90;;;;;;;1.97;100.00;98516.94;5451027;26;20333;-79
2024/04/22 05:02:03;;;;;;;6.23;3.33;;;;;;;1.90;100.00;98518.84;5451174;26;20238;-79
2024/04/22 05:04:31;;;;;;;4.10;3.07;;;;;;;1.98;100.00;98524.72;5453697;26;20340;-79
2024/04/22 05:06:59;;;;;;;3.50;2.80;;;;;;;2.05;100.00;98526.22;5460988;26;20227;-79
2024/04/22 05:09:25;;;;;;;5.33;3.60;;;;;;;2.15;100.00;98521.59;5461481;26;20264;-79
2024/04/22 05:11:54;;;;;;;3.83;2.87;;;;;;;2.25;100.00;98518.66;5461480;26;20224;-79
2024/04/22 05:14:19;;;;;;;5.30;2.83;;;;;;;2.32;100.00;98514.13;5457078;26;20705;-79
2024/04/22 05:16:50;;;;;;;3.27;2.67;;;;;;;2.32;100.00;98514.97;5456557;26;20225;-79
2024/04/22 05:19:17;;;;;;;3.80;3.10;;;;;;;2.34;100.00;98513.16;5455478;26;20428;-79
2024/04/22 05:21:47;;;;;;;4.13;3.30;;;;;;;2.47;100.00;98506.69;5455475;26;20238;-79
2024/04/22 05:24:18;;;;;;;4.10;3.33;;;;;;;2.48;100.00;98499.69;5455131;26;20230;-79
2024/04/22 05:26:46;;;;;;;4.00;2.97;;;;;;;2.52;100.00;98509.97;5455531;25;20227;-79
2024/04/22 05:29:12;;;;;;;3.90;2.80;;;;;;;2.54;100.00;98509.94;5453721;26;20238;-79
2024/04/22 05:31:40;;;;;;;3.73;2.93;;;;;;;2.53;100.00;98503.88;5453541;26;20311;-79
2024/04/22 05:36:55;;;;;;;3.00;2.70;;;;;;;2.74;100.00;98497.09;5455415;26;20271;-81
2024/04/22 05:39:23;;;;;;;5.17;3.00;;;;;;;2.80;100.00;98492.53;5450800;26;20336;-80
2024/04/22 05:41:49;;;;;;;3.30;2.87;;;;;;;2.94;100.00;98494.72;5453003;26;20720;-79
2024/04/22 05:44:17;;;;;;;3.43;3.13;;;;;;;2.95;100.00;98492.03;5452627;26;20317;-79
2024/04/22 05:46:45;;;;;;;5.10;3.00;;;;;;;3.11;100.00;98488.00;5450104;26;20276;-80
2024/04/22 05:49:13;;;;;;;3.77;2.93;;;;;;;3.04;100.00;98490.88;5448626;26;20223;-79
2024/04/22 05:51:41;;;;;;;4.37;2.67;;;;;;;3.11;99.37;98488.00;5451326;26;20225;-79
2024/04/22 05:54:10;;;;;;;4.00;3.00;;;;;;;3.18;98.71;98489.50;5451967;26;20265;-79
2024/04/22 05:56:38;;;;;;;3.43;2.80;;;;;;;3.26;96.96;98482.25;5451126;26;20234;-79
2024/04/22 05:59:06;;;;;;;4.10;2.93;;;;;;;3.67;94.84;98463.34;5450431;26;20298;-79
2024/04/22 06:01:34;;;;;;;3.57;2.90;;;;;;;4.25;91.60;98459.38;5450107;26;20277;-80
2024/04/22 06:03:59;;;;;;;4.23;2.67;;;;;;;4.67;87.96;98428.88;5450694;26;20274;-79
2024/04/22 06:06:28;;;;;;;2.87;2.37;;;;;;;5.03;83.63;98417.72;5450803;26;20311;-79
2024/04/22 06:08:53;;;;;;;3.23;2.83;;;;;;;5.28;81.38;98431.47;5449892;26;20222;-79
2024/04/22 06:11:24;;;;;;;4.07;2.63;;;;;;;5.84;78.31;98419.31;5451808;26;20356;-79
2024/04/22 06:13:49;;;;;;;3.80;2.60;;;;;;;5.98;75.83;98416.06;5452949;26;20276;-80
2024/04/22 06:16:18;;;;;;;2.87;2.57;;;;;;;5.52;74.82;98417.28;5451633;26;20309;-79
2024/04/22 06:18:43;;;;;;;5.23;2.83;;;;;;;5.00;76.14;98428.31;5449863;26;20235;-79
2024/04/22 06:21:11;;;;;;;3.17;2.47;;;;;;;4.77;77.06;98433.66;5449411;26;20320;-80
2024/04/22 06:23:37;;;;;;;3.63;2.57;;;;;;;4.37;79.11;98446.66;5450794;26;20239;-79
2024/04/22 06:26:06;;;;;;;5.30;2.60;;;;;;;4.18;82.10;98461.38;5450755;26;20300;-79
2024/04/22 06:28:35;;;;;;;3.87;2.40;;;;;;;4.11;84.77;98478.22;5453222;26;20253;-80
2024/04/22 06:31:03;;;;;;;2.80;2.50;;;;;;;4.17;81.94;98464.88;5452344;26;20234;-79
2024/04/22 06:33:29;;;;;;;3.00;2.50;;;;;;;4.19;81.14;98451.75;5451773;26;20326;-79
2024/04/22 06:36:01;;;;;;;2.70;2.27;;;;;;;4.27;80.65;98449.72;5451847;26;20238;-79
2024/04/22 06:38:30;;;;;;;4.17;2.93;;;;;;;4.19;80.28;98442.16;5451412;26;20270;-79
2024/04/22 06:40:58;;;;;;;4.03;2.33;;;;;;;4.12;83.90;98471.22;5450144;26;20283;-80
2024/04/22 06:43:24;;;;;;;3.73;2.93;;;;;;;4.11;83.95;98475.63;5448163;26;20234;-77
2024/04/22 06:45:54;;;;;;;4.23;2.50;;;;;;;4.03;82.66;98464.56;5445065;26;20338;-79
2024/04/22 06:48:20;;;;;;;3.00;2.57;;;;;;;3.89;82.92;98464.25;5445163;26;20788;-79
2024/04/22 06:50:51;;;;;;;3.30;2.97;;;;;;;3.80;85.79;98485.50;5451724;26;20239;-79
2024/04/22 06:53:17;;;;;;;4.00;2.63;;;;;;;3.87;87.38;98497.47;5452579;25;20493;-79
2024/04/22 06:55:46;;;;;;;4.03;2.90;;;;;;;3.89;81.79;98459.03;5452676;26;20259;-79
2024/04/22 06:58:11;;;;;;;3.33;2.73;;;;;;;3.83;83.97;98474.94;5451031;26;20349;-80
2024/04/22 07:00:42;;;;;;;3.67;2.57;;;;;;;3.85;84.35;98478.34;5451713;26;20238;-79
2024/04/22 07:03:13;;;;;;;3.10;2.37;;;;;;;3.89;84.43;98485.16;5449172;26;20280;-79
2024/04/22 07:05:41;;;;;;;5.00;2.67;;;;;;;3.85;83.95;98478.34;5447067;26;20264;-79
2024/04/22 07:08:07;;;;;;;3.27;2.53;;;;;;;3.84;84.23;98481.03;5453614;26;20240;-79
2024/04/22 07:10:38;;;;;;;4.13;2.80;;;;;;;3.87;83.84;98487.00;5447955;26;20369;-79
2024/04/22 07:13:04;;;;;;;3.20;2.40;;;;;;;3.78;84.82;98482.09;5444531;26;20273;-78
2024/04/22 07:15:32;;;;;;;3.70;2.90;;;;;;;3.74;84.56;98484.88;5448471;26;20231;-78
2024/04/22 07:17:58;;;;;;;3.27;2.60;;;;;;;3.77;85.17;98485.63;5443775;26;20216;-77
2024/04/22 07:20:28;;;;;;;2.60;2.37;;;;;;;3.81;85.46;98492.44;5437830;26;20291;-78
2024/04/22 07:22:54;;;;;;;3.50;2.57;;;;;;;3.78;85.45;98491.72;5442714;26;20224;-79
2024/04/22 07:25:22;;;;;;;4.53;2.80;;;;;;;3.76;86.43;98502.22;5451969;26;20293;-78
2024/04/22 07:27:48;;;;;;;3.57;2.67;;;;;;;3.86;86.78;98497.50;5443854;26;20284;-78
2024/04/22 07:30:20;;;;;;;3.70;2.47;;;;;;;4.04;84.35;98489.81;5442048;26;20244;-78
2024/04/22 07:32:47;;;;;;;3.43;2.70;;;;;;;4.24;84.29;98489.06;5443489;26;20226;-78
2024/04/22 07:35:16;;;;;;;3.67;2.73;;;;;;;4.41;83.44;98484.03;5443698;26;20763;-78
2024/04/22 07:37:46;;;;;;;3.70;2.80;;;;;;;4.67;80.75;98458.53;5443270;26;20266;-79
2024/04/22 07:40:16;;;;;;;4.07;2.50;;;;;;;4.88;78.40;98449.78;5451620;26;20238;-78
2024/04/22 07:42:43;;;;;;;3.30;2.23;;;;;;;4.92;78.10;98451.38;5451053;26;20263;-79
2024/04/22 07:45:13;;;;;;;2.87;2.20;;;;;;;5.11;82.16;98481.09;5454100;26;20239;-78
2024/04/22 07:47:39;;;;;;;3.07;2.43;;;;;;;5.22;81.56;98481.50;5428117;26;20289;-80
2024/04/22 07:50:08;;;;;;;5.73;2.73;;;;;;;5.47;78.69;98457.72;5422665;26;20234;-80
2024/04/22 07:52:35;;;;;;;2.53;2.17;;;;;;;5.67;74.74;98432.31;5422572;26;20229;-79
2024/04/22 07:55:07;;;;;;;2.53;1.90;;;;;;;5.73;68.72;98386.63;5416245;26;20229;-77
2024/04/22 07:57:33;;;;;;;3.17;2.37;;;;;;;5.77;72.56;98433.63;5415293;26;20265;-78
2024/04/22 08:00:05;;;;;;;2.60;2.20;;;;;;;5.86;70.70;98411.41;5414240;26;20345;-77
2024/04/22 08:02:31;;;;;;;2.47;1.87;;;;;;;5.99;73.07;98434.34;5415111;26;20221;-78
2024/04/22 08:05:00;;;;;;;3.90;2.10;;;;;;;6.16;70.76;98410.81;5415168;26;20282;-78
2024/04/22 08:07:25;;;;;;;3.43;1.83;;;;;;;6.42;72.11;98428.78;5414417;26;20285;-78
2024/04/22 08:09:54;;;;;;;3.03;2.10;;;;;;;6.68;71.55;98430.16;5412346;26;20302;-78
2024/04/22 08:12:22;;;;;;;3.70;2.20;;;;;;;6.72;68.70;98406.28;5412685;26;20266;-78
2024/04/22 08:14:50;;;;;;;2.50;2.10;;;;;;;6.83;68.51;98403.97;5415598;26;20261;-78
2024/04/22 08:17:15;;;;;;;3.00;1.83;;;;;;;7.04;69.86;98418.69;5411234;26;20326;-79
2024/04/22 08:19:44;;;;;;;2.33;1.70;;;;;;;7.10;68.07;98396.47;5412918;26;21031;-79
2024/04/22 08:22:09;;;;;;;3.20;2.10;;;;;;;7.32;72.17;98439.97;5411677;26;20281;-78
2024/04/22 08:24:37;;;;;;;2.50;2.13;;;;;;;7.48;70.22;98419.88;5412152;26;20230;-78
2024/04/22 08:27:03;;;;;;;3.17;2.10;;;;;;;7.72;67.36;98397.53;5412530;26;20264;-79
2024/04/22 08:29:34;;;;;;;2.77;1.80;;;;;;;7.74;66.23;98396.50;5416015;26;20246;-79
2024/04/22 08:31:59;;;;;;;2.40;1.83;;;;;;;7.66;65.98;98405.75;5413421;26;20228;-79
2024/04/22 08:34:28;;;;;;;3.40;2.33;;;;;;;7.62;60.99;98385.78;5415852;26;20233;-80
2024/04/22 08:36:53;;;;;;;3.17;2.00;;;;;;;7.54;63.94;98430.91;5416825;26;20224;-79
2024/04/22 08:39:21;;;;;;;2.30;1.80;;;;;;;7.55;65.06;98437.88;5414218;26;20235;-78
2024/04/22 08:41:47;;;;;;;3.67;2.07;;;;;;;7.44;64.87;98439.34;5415413;26;20233;-79
2024/04/22 08:44:17;;;;;;;2.90;2.30;;;;;;;7.41;65.20;98439.53;5418216;26;20310;-80
2024/04/22 08:46:45;;;;;;;6.13;2.23;;;;;;;7.43;65.10;98437.66;5418115;26;20269;-79
2024/04/22 08:49:16;;;;;;;3.47;2.37;;;;;;;7.49;64.39;98442.59;5414308;26;20265;-78
2024/04/22 08:51:42;;;;;;;2.50;2.30;;;;;;;7.44;63.39;98434.97;5412774;26;20355;-77
2024/04/22 08:54:10;;;;;;;3.70;2.10;;;;;;;7.54;60.56;98401.13;5414242;26;20376;-80
2024/04/22 08:56:36;;;;;;;3.80;2.10;;;;;;;7.52;60.27;98408.22;5414058;26;20331;-82
2024/04/22 08:59:04;;;;;;;2.53;2.10;;;;;;;7.55;61.42;98423.88;5408963;26;20240;-79
2024/04/22 09:01:30;;;;;;;3.00;2.53;;;;;;;7.71;62.06;98432.66;5409406;26;20333;-81
2024/04/22 09:04:01;;;;;;;2.87;2.30;;;;;;;7.83;61.82;98424.13;5413224;26;20237;-81
2024/04/22 09:06:26;;;;;;;3.70;2.27;;;;;;;8.08;58.71;98396.38;5412819;26;20244;-81
2024/04/22 09:08:55;;;;;;;2.57;2.10;;;;;;;8.08;57.93;98399.00;5412912;26;20793;-81
2024/04/22 09:11:20;;;;;;;2.83;2.30;;;;;;;8.03;57.47;98394.94;5413500;26;20644;-81
2024/04/22 09:13:49;;;;;;;3.90;2.30;;;;;;;7.96;56.99;98407.56;5412530;26;20229;-81
2024/04/22 09:16:16;;;;;;;2.07;1.83;;;;;;;7.79;58.82;98433.94;5410044;26;20326;-82
2024/04/22 09:18:44;;;;;;;2.77;2.10;;;;;;;7.68;58.32;98424.91;5407999;26;20230;-82
2024/04/22 09:21:13;;;;;;;2.53;1.97;;;;;;;7.54;58.98;98436.16;5409125;26;20241;-81
2024/04/22 09:23:41;;;;;;;2.60;2.23;;;;;;;7.50;59.77;98439.03;5422768;26;20241;-81
2024/04/22 09:26:07;;;;;;;3.23;2.30;;;;;;;7.45;60.03;98430.53;5437796;26;20247;-80
2024/04/22 09:28:36;;;;;;;2.30;2.00;;;;;;;7.63;59.29;98429.56;5445464;26;20342;-81
2024/04/22 09:31:04;;;;;;;2.50;2.07;;;;;;;7.66;60.10;98434.69;5445508;26;20309;-81
2024/04/22 09:33:35;;;;;;;3.70;2.30;;;;;;;7.83;62.10;98447.81;5445733;26;20272;-81
2024/04/22 09:36:02;;;;;;;3.13;2.37;;;;;;;8.21;63.83;98460.59;5446072;26;20294;-80
2024/04/22 09:38:34;;;;;;;3.27;1.80;;;;;;;8.49;61.00;98433.59;5443914;26;20234;-79
2024/04/22 09:41:02;;;;;;;3.00;2.00;;;;;;;8.60;60.46;98423.31;5443759;26;20605;-80
2024/04/22 09:43:32;;;;;;;2.40;1.97;;;;;;;8.61;58.86;98406.56;5443499;26;20251;-79
2024/04/22 09:46:01;;;;;;;2.00;1.67;;;;;;;8.72;59.33;98414.69;5444086;26;20262;-81
2024/04/22 09:48:31;;;;;;;2.83;2.07;;;;;;;8.74;58.14;98397.00;5441548;26;20231;-83
2024/04/22 09:50:59;;;;;;;2.47;1.87;;;;;;;8.84;59.29;98414.84;5439660;26;20347;-78
2024/04/22 09:53:28;;;;;;;2.20;1.50;;;;;;;9.06;57.60;98398.63;5439909;26;20271;-79
2024/04/22 09:56:00;;;;;;;3.10;2.07;;;;;;;9.25;58.60;98409.78;5440799;26;20295;-80
2024/04/22 09:58:31;;;;;;;2.33;1.93;;;;;;;9.33;55.94;98386.44;5440297;26;20717;-78
2024/04/22 10:00:57;;;;;;;1.90;1.70;;;;;;;9.19;52.73;98352.97;5441525;26;20325;-79
2024/04/22 10:03:27;;;;;;;2.60;1.90;;;;;;;9.23;51.62;98370.31;5450729;26;20315;-79
2024/04/22 10:05:56;;;;;;;2.00;1.70;;;;;;;9.45;54.23;98398.88;5447942;26;20271;-78
2024/04/22 10:08:24;;;;;;;2.33;1.60;;;;;;;9.79;56.00;98412.56;5446970;26;20235;-79
2024/04/22 10:10:50;;;;;;;4.90;1.97;;;;;;;9.87;55.77;98398.91;5447424;26;20344;-78
2024/04/22 10:13:27;;;;;;;2.13;1.70;;;;;;;9.71;55.19;98400.78;5448871;26;20339;-79
2024/04/22 10:15:52;;;;;;;2.53;1.67;;;;;;;9.62;54.26;98388.16;5448630;26;20563;-80
2024/04/22 10:18:22;;;;;;;3.07;1.80;;;;;;;9.35;52.42;98374.00;5448404;26;20271;-78
2024/04/22 10:20:48;;;;;;;1.90;1.80;;;;;;;9.07;53.38;98368.69;5447971;26;20357;-81
2024/04/22 10:23:19;;;;;;;1.77;1.60;;;;;;;8.82;52.60;98368.44;5448294;26;20795;-79
2024/04/22 10:25:44;;;;;;;2.20;2.00;;;;;;;8.70;55.73;98392.88;5422255;26;20247;-79
2024/04/22 10:28:13;;;;;;;4.00;2.10;;;;;;;8.65;54.76;98377.34;5410458;26;20328;-78
2024/04/22 10:30:42;;;;;;;3.13;2.00;;;;;;;8.76;55.96;98390.72;5413971;26;20252;-79
2024/04/22 10:33:10;;;;;;;2.57;2.10;;;;;;;8.97;57.02;98399.16;5417225;26;20379;-79
2024/04/22 10:35:35;;;;;;;2.30;1.60;;;;;;;9.02;57.00;98387.44;5417812;26;20350;-79
2024/04/22 10:38:04;;;;;;;3.93;2.00;;;;;;;9.08;56.72;98380.94;5418573;26;20234;-79
2024/04/22 10:40:29;;;;;;;4.27;1.90;;;;;;;9.16;55.94;98376.03;5417805;26;20248;-79
2024/04/22 10:42:58;;;;;;;1.70;1.60;;;;;;;9.15;55.36;98366.44;5418172;26;20305;-79
2024/04/22 10:45:24;;;;;;;1.63;1.43;;;;;;;9.21;54.37;98358.16;5416009;26;20276;-79
2024/04/22 10:47:55;;;;;;;2.27;1.40;;;;;;;9.24;54.64;98361.47;5410053;26;20225;-77
2024/04/22 10:50:21;;;;;;;2.77;2.10;;;;;;;9.44;54.58;98374.31;5403494;26;20796;-77
2024/04/22 10:52:50;;;;;;;2.47;1.90;;;;;;;9.42;54.45;98359.53;5412326;26;20222;-80
2024/04/22 10:55:16;;;;;;;1.70;1.60;;;;;;;9.59;55.20;98373.38;5416458;26;20691;-79
2024/04/22 10:57:45;;;;;;;2.13;1.93;;;;;;;9.60;55.01;98364.50;5417234;26;20340;-79
2024/04/22 11:00:12;;;;;;;2.97;2.40;;;;;;;9.65;55.89;98377.41;5416214;26;20287;-79
2024/04/22 11:02:42;;;;;;;2.70;1.90;;;;;;;9.92;53.97;98362.50;5414377;26;20232;-79
2024/04/22 11:05:10;;;;;;;2.57;1.80;;;;;;;10.05;53.55;98351.13;5414777;26;20358;-79
2024/04/22 11:07:38;;;;;;;1.57;1.47;;;;;;;10.26;52.64;98343.59;5414620;26;20231;-79
2024/04/22 11:10:04;;;;;;;3.63;1.60;;;;;;;10.59;50.18;98322.91;5415262;26;20724;-79
2024/04/22 11:12:33;;;;;;;1.40;1.30;;;;;;;10.58;50.52;98322.03;5415381;26;20231;-79
2024/04/22 11:14:59;;;;;;;2.00;1.67;;;;;;;10.46;50.31;98332.59;5415767;26;20719;-79
2024/04/22 11:17:27;;;;;;;1.67;1.57;;;;;;;10.23;49.62;98312.09;5416731;26;20327;-79
2024/04/22 11:19:53;;;;;;;1.87;1.50;;;;;;;10.10;50.41;98327.06;5416099;26;20329;-79
2024/04/22 11:22:25;;;;;;;2.33;1.80;;;;;;;9.72;53.28;98347.91;5416256;26;20907;-79
2024/04/22 11:24:50;;;;;;;1.47;1.37;;;;;;;9.62;52.85;98340.66;5419619;26;20331;-79
2024/04/22 11:27:19;;;;;;;1.83;1.67;;;;;;;9.37;48.43;98293.00;5448448;26;20673;-79
2024/04/22 11:29:44;;;;;;;1.40;1.30;;;;;;;9.21;49.01;98297.50;5447365;26;20290;-79
2024/04/22 11:32:12;;;;;;;1.70;1.50;;;;;;;8.97;49.78;98301.63;5442007;26;20316;-79
2024/04/22 11:34:39;;;;;;;1.50;1.40;;;;;;;8.95;49.76;98312.28;5447502;26;20280;-79
2024/04/22 11:37:07;;;;;;;1.40;1.30;;;;;;;8.95;50.58;98314.94;5447645;26;20231;-79
2024/04/22 11:39:36;;;;;;;1.70;1.40;;;;;;;8.99;49.91;98303.22;5450240;26;20291;-79
2024/04/22 11:42:04;;;;;;;1.80;1.33;;;;;;;9.11;48.52;98291.13;5447638;26;20269;-79
2024/04/22 11:44:29;;;;;;;2.00;1.60;;;;;;;9.11;47.12;98281.41;5450886;26;20576;-79